Time;durP1;ratioP1;P1;durP2;ratioP2;P2;SDS_P1;SDS_P2;PMS_P1;PMS_P2;Temp;Humidity;BMP_temperature;BMP_pressure;BME280_temperature;BME280_humidity;BME280_pressure;Samples;Min_cycle;Max_cycle;Signal;HPM_P1;HPM_P2
2021/11/25 00:01:09;;;;;;;12.55;7.70;;;8.40;70.00;;;;;;5011468;28;20017;-72
2021/11/25 00:03:35;;;;;;;14.00;7.95;;;8.40;70.00;;;;;;5009661;28;20101;-72
2021/11/25 00:06:01;;;;;;;12.35;7.88;;;8.40;70.20;;;;;;5009980;28;20034;-72
2021/11/25 00:08:26;;;;;;;12.93;8.00;;;8.40;70.30;;;;;;5009498;28;20045;-72
2021/11/25 00:10:52;;;;;;;11.98;7.10;;;8.40;70.10;;;;;;5007939;28;20384;-72
2021/11/25 00:13:18;;;;;;;13.68;7.80;;;8.40;70.10;;;;;;5008117;28;20107;-72
2021/11/25 00:15:43;;;;;;;12.38;7.30;;;8.40;70.00;;;;;;4992637;28;20034;-72
2021/11/25 00:18:09;;;;;;;13.05;7.72;;;8.40;69.80;;;;;;5009827;28;20483;-72
2021/11/25 00:20:35;;;;;;;10.45;7.05;;;8.40;69.50;;;;;;5020436;28;20026;-72
2021/11/25 00:23:01;;;;;;;12.85;7.43;;;8.40;70.10;;;;;;5010566;28;20030;-72
2021/11/25 00:25:27;;;;;;;11.02;7.05;;;8.40;69.80;;;;;;5010537;28;20386;-72
2021/11/25 00:27:52;;;;;;;11.50;7.22;;;8.40;70.00;;;;;;5013147;28;20084;-72
2021/11/25 00:30:18;;;;;;;10.05;6.97;;;8.40;70.10;;;;;;4996236;28;20622;-71
2021/11/25 00:32:44;;;;;;;11.43;7.05;;;8.40;69.90;;;;;;5015692;28;20041;-71
2021/11/25 00:35:11;;;;;;;10.75;7.28;;;8.40;69.80;;;;;;5013337;28;20018;-72
2021/11/25 00:37:38;;;;;;;12.50;7.00;;;8.30;69.80;;;;;;5013614;28;20394;-72
2021/11/25 00:40:10;;;;;;;11.40;7.50;;;8.40;69.70;;;;;;4996444;28;20425;-72
2021/11/25 00:42:35;;;;;;;11.38;6.70;;;8.40;70.10;;;;;;5012229;28;20019;-71
2021/11/25 00:45:02;;;;;;;10.43;6.40;;;8.40;70.00;;;;;;5013323;28;20026;-71
2021/11/25 00:47:28;;;;;;;9.70;6.25;;;8.30;70.00;;;;;;5012613;28;20049;-71
2021/11/25 00:49:53;;;;;;;10.77;6.93;;;8.40;70.10;;;;;;5010993;28;20040;-70
2021/11/25 00:52:19;;;;;;;10.02;6.55;;;8.30;70.00;;;;;;5012756;28;20398;-71
2021/11/25 00:54:45;;;;;;;10.20;6.82;;;8.40;70.10;;;;;;5013336;28;20061;-72
2021/11/25 00:57:11;;;;;;;10.57;6.63;;;8.40;69.80;;;;;;5013074;28;20406;-71
2021/11/25 00:59:36;;;;;;;11.50;6.97;;;8.30;70.00;;;;;;5012980;28;20487;-72
2021/11/25 01:02:03;;;;;;;11.85;7.22;;;8.30;69.60;;;;;;5015053;28;20112;-72
2021/11/25 01:04:29;;;;;;;10.65;6.47;;;8.30;69.90;;;;;;4995715;28;20470;-71
2021/11/25 01:06:55;;;;;;;13.02;7.45;;;8.30;70.00;;;;;;4983877;28;20051;-71
2021/11/25 01:09:20;;;;;;;11.80;7.60;;;8.30;70.30;;;;;;4972681;28;20098;-71
2021/11/25 01:11:46;;;;;;;13.25;7.85;;;8.30;70.20;;;;;;4970905;28;20122;-71
2021/11/25 01:14:14;;;;;;;12.27;7.63;;;8.20;70.10;;;;;;4970780;28;20027;-71
2021/11/25 01:16:41;;;;;;;13.10;7.60;;;8.20;70.00;;;;;;4973699;28;20484;-71
2021/11/25 01:19:06;;;;;;;14.10;7.60;;;8.10;69.90;;;;;;4972150;28;20029;-71
2021/11/25 01:21:32;;;;;;;10.57;7.13;;;8.00;70.10;;;;;;4985302;28;20031;-73
2021/11/25 01:23:58;;;;;;;11.32;7.55;;;8.00;70.10;;;;;;4974380;28;20023;-73
2021/11/25 01:26:23;;;;;;;10.98;6.97;;;7.90;70.40;;;;;;4972891;28;20042;-72
2021/11/25 01:28:49;;;;;;;11.27;7.32;;;7.90;70.70;;;;;;4971776;28;20031;-72
2021/11/25 01:31:15;;;;;;;11.40;7.30;;;7.90;70.40;;;;;;4973639;28;20030;-73
2021/11/25 01:33:40;;;;;;;11.45;7.63;;;7.90;70.50;;;;;;4973503;28;20023;-72
2021/11/25 01:36:06;;;;;;;12.40;7.85;;;7.90;70.70;;;;;;4973783;28;20035;-72
2021/11/25 01:38:32;;;;;;;12.38;7.97;;;7.90;71.10;;;;;;4973205;28;20039;-71
2021/11/25 01:40:58;;;;;;;12.15;7.47;;;7.80;70.60;;;;;;4972972;28;20102;-71
2021/11/25 01:43:25;;;;;;;14.57;8.38;;;7.80;70.80;;;;;;4971460;28;20062;-72
2021/11/25 01:45:53;;;;;;;10.60;7.10;;;7.80;71.10;;;;;;4971298;28;20051;-72
2021/11/25 01:48:20;;;;;;;12.57;7.70;;;7.90;71.30;;;;;;4972102;28;20520;-72
2021/11/25 01:50:49;;;;;;;11.88;7.65;;;7.90;71.40;;;;;;4970020;28;20023;-72
2021/11/25 01:53:16;;;;;;;13.27;7.80;;;7.90;70.90;;;;;;4970678;28;20027;-72
2021/11/25 01:55:41;;;;;;;12.68;7.97;;;7.90;71.00;;;;;;4971053;28;20081;-71
2021/11/25 01:58:07;;;;;;;11.95;7.88;;;7.90;70.90;;;;;;4972449;28;20428;-70
2021/11/25 02:00:33;;;;;;;12.38;8.07;;;7.80;71.00;;;;;;4970941;28;20070;-71
2021/11/25 02:03:01;;;;;;;14.32;8.07;;;7.80;71.00;;;;;;4973943;28;20026;-71
2021/11/25 02:05:26;;;;;;;12.52;8.30;;;7.80;71.30;;;;;;4974121;28;20062;-71
2021/11/25 02:07:52;;;;;;;13.43;8.10;;;7.80;71.20;;;;;;5004593;28;20088;-71
2021/11/25 02:10:18;;;;;;;12.68;8.48;;;7.80;71.20;;;;;;5009786;28;20057;-71
2021/11/25 02:12:44;;;;;;;12.85;7.72;;;7.70;71.00;;;;;;5011556;28;20034;-71
2021/11/25 02:15:13;;;;;;;13.55;8.40;;;7.70;71.10;;;;;;5011449;28;20510;-71
2021/11/25 02:17:39;;;;;;;12.40;8.65;;;7.70;71.60;;;;;;4994609;28;20029;-72
2021/11/25 02:20:07;;;;;;;14.48;7.97;;;7.70;71.70;;;;;;5016896;28;20022;-71
2021/11/25 02:22:33;;;;;;;14.25;8.80;;;7.80;71.60;;;;;;4998992;28;20030;-72
2021/11/25 02:24:58;;;;;;;14.15;8.48;;;7.70;71.50;;;;;;5009793;28;20026;-71
2021/11/25 02:27:24;;;;;;;12.10;7.65;;;7.70;71.50;;;;;;5009600;28;20119;-72
2021/11/25 02:29:50;;;;;;;12.35;7.70;;;7.70;71.70;;;;;;5013144;28;20029;-71
2021/11/25 02:32:48;;;;;;;12.45;8.30;;;7.80;71.80;;;;;;5011592;28;20518;-72
2021/11/25 02:35:31;;;;;;;12.45;7.53;;;7.80;71.50;;;;;;4931784;29;20048;-72
2021/11/25 02:37:57;;;;;;;11.07;7.38;;;7.80;71.70;;;;;;4930025;29;20039;-72
2021/11/25 02:40:24;;;;;;;11.68;7.57;;;7.80;71.80;;;;;;4932351;29;20050;-72
2021/11/25 02:42:56;;;;;;;11.77;7.93;;;7.90;72.20;;;;;;4914806;29;20055;-71
2021/11/25 02:45:24;;;;;;;13.07;7.07;;;7.90;71.90;;;;;;4921250;29;20039;-72
2021/11/25 02:47:50;;;;;;;10.23;6.60;;;7.90;71.90;;;;;;4928816;29;20039;-72
2021/11/25 02:50:17;;;;;;;10.57;7.20;;;7.90;72.10;;;;;;4929675;29;20031;-72
2021/11/25 02:52:44;;;;;;;11.98;7.65;;;7.90;71.50;;;;;;4925466;29;20032;-72
2021/11/25 02:55:10;;;;;;;9.45;6.57;;;7.90;71.80;;;;;;4907604;29;20128;-73
2021/11/25 02:57:37;;;;;;;10.68;6.97;;;7.80;71.40;;;;;;4929798;29;20103;-73
2021/11/25 03:00:14;;;;;;;12.77;8.13;;;7.80;71.60;;;;;;4931771;29;20039;-73
2021/11/25 03:02:39;;;;;;;10.05;6.68;;;7.80;71.80;;;;;;4931675;29;20039;-73
2021/11/25 03:05:08;;;;;;;11.57;7.30;;;7.80;71.70;;;;;;4929768;29;20039;-72
2021/11/25 03:07:34;;;;;;;10.25;6.47;;;7.70;72.00;;;;;;4916044;29;20043;-71
2021/11/25 03:10:01;;;;;;;10.40;6.80;;;7.60;71.80;;;;;;4940552;28;20035;-73
2021/11/25 03:12:26;;;;;;;12.00;7.05;;;7.60;72.00;;;;;;4991059;28;20168;-72
2021/11/25 03:14:52;;;;;;;11.60;7.25;;;7.60;72.20;;;;;;5012479;28;20053;-71
2021/11/25 03:17:18;;;;;;;10.73;6.85;;;7.60;72.40;;;;;;4994022;28;20045;-71
2021/11/25 03:19:43;;;;;;;11.82;7.25;;;7.70;72.50;;;;;;5012613;28;20018;-73
2021/11/25 03:22:09;;;;;;;10.68;7.05;;;7.70;72.40;;;;;;5018015;28;20104;-73
2021/11/25 03:24:34;;;;;;;11.07;7.05;;;7.70;72.20;;;;;;5008959;28;20105;-72
2021/11/25 03:27:00;;;;;;;11.48;7.35;;;7.70;72.40;;;;;;5010917;28;20061;-72
2021/11/25 03:29:27;;;;;;;10.90;6.90;;;7.70;72.40;;;;;;5012355;28;20030;-72
2021/11/25 03:31:52;;;;;;;11.35;6.93;;;7.70;72.60;;;;;;5008691;28;20026;-72
2021/11/25 03:34:18;;;;;;;11.10;7.00;;;7.80;72.20;;;;;;5010374;28;20076;-72
2021/11/25 03:36:44;;;;;;;11.30;6.95;;;7.80;72.40;;;;;;5010217;28;20056;-73
2021/11/25 03:39:10;;;;;;;10.23;6.70;;;7.80;72.10;;;;;;5010226;28;20041;-72
2021/11/25 03:41:36;;;;;;;11.00;6.95;;;7.80;72.30;;;;;;5012038;28;20589;-72
2021/11/25 03:44:02;;;;;;;11.70;7.18;;;7.80;72.40;;;;;;5008414;28;20014;-72
2021/11/25 03:46:30;;;;;;;10.65;6.90;;;7.80;72.30;;;;;;5010073;28;20113;-72
2021/11/25 03:48:56;;;;;;;12.35;7.00;;;7.80;72.40;;;;;;5010306;28;20540;-72
2021/11/25 03:51:22;;;;;;;9.77;6.53;;;7.80;72.40;;;;;;4992981;28;20026;-72
2021/11/25 03:53:49;;;;;;;10.80;7.10;;;7.90;72.80;;;;;;5011708;28;20022;-72
2021/11/25 03:56:15;;;;;;;10.35;6.97;;;7.90;72.60;;;;;;5007882;28;20037;-73
2021/11/25 03:58:42;;;;;;;10.10;6.88;;;7.90;72.30;;;;;;5009590;28;20469;-72
2021/11/25 04:01:08;;;;;;;10.63;6.90;;;7.90;72.10;;;;;;5013009;28;20105;-73
2021/11/25 04:03:34;;;;;;;10.75;6.90;;;7.90;72.10;;;;;;5010300;28;20060;-72
2021/11/25 04:06:00;;;;;;;10.93;6.63;;;7.90;72.10;;;;;;5011370;28;20099;-73
2021/11/25 04:08:26;;;;;;;9.90;6.30;;;7.90;72.10;;;;;;5011790;28;20025;-72
2021/11/25 04:10:52;;;;;;;10.35;6.20;;;7.90;72.20;;;;;;5010984;28;20018;-72
2021/11/25 04:13:18;;;;;;;11.50;7.22;;;7.90;72.40;;;;;;5011785;28;20112;-73
2021/11/25 04:15:43;;;;;;;10.98;6.85;;;8.00;72.10;;;;;;5014627;28;20022;-72
2021/11/25 04:18:10;;;;;;;10.05;6.80;;;7.90;72.10;;;;;;4997504;28;20054;-72
2021/11/25 04:20:37;;;;;;;10.82;7.03;;;7.90;71.80;;;;;;5027883;28;20056;-73
2021/11/25 04:23:03;;;;;;;11.43;7.07;;;7.90;72.10;;;;;;4997546;28;20273;-73
2021/11/25 04:25:29;;;;;;;11.25;6.25;;;7.90;72.20;;;;;;5000194;28;20426;-72
2021/11/25 04:27:55;;;;;;;9.85;7.05;;;7.90;72.30;;;;;;5012117;28;20109;-73
2021/11/25 04:35:32;;;;;;;11.20;7.50;;;7.90;72.40;;;;;;5011853;28;20073;-73
2021/11/25 04:37:59;;;;;;;11.38;7.22;;;7.90;72.40;;;;;;5007484;28;20379;-73
2021/11/25 04:40:25;;;;;;;10.25;7.20;;;7.90;72.50;;;;;;5010403;28;20478;-73
2021/11/25 04:42:51;;;;;;;9.77;6.75;;;7.90;72.60;;;;;;5010194;28;20033;-73
2021/11/25 04:45:17;;;;;;;10.60;7.10;;;7.90;72.30;;;;;;5009712;28;20414;-72
2021/11/25 04:47:42;;;;;;;10.63;7.13;;;8.00;72.30;;;;;;5011848;28;20057;-73
2021/11/25 04:50:08;;;;;;;11.50;6.53;;;8.00;72.40;;;;;;5008034;28;20049;-73
2021/11/25 04:52:34;;;;;;;11.07;6.90;;;8.00;72.40;;;;;;5004078;28;20022;-72
2021/11/25 04:55:00;;;;;;;12.85;7.43;;;7.90;73.20;;;;;;5009224;28;20018;-73
2021/11/25 04:57:25;;;;;;;11.93;7.30;;;8.00;72.30;;;;;;5009502;28;20022;-73
2021/11/25 04:59:51;;;;;;;11.07;6.95;;;8.00;72.50;;;;;;5014256;28;20022;-73
2021/11/25 05:02:18;;;;;;;11.43;7.63;;;8.00;72.60;;;;;;5018610;28;20033;-73
2021/11/25 05:04:43;;;;;;;11.48;7.55;;;8.00;73.10;;;;;;5016759;28;20026;-73
2021/11/25 05:07:09;;;;;;;9.65;6.65;;;8.00;72.40;;;;;;5016585;28;20042;-73
2021/11/25 05:09:35;;;;;;;12.75;7.53;;;8.00;72.20;;;;;;5003876;28;20494;-73
2021/11/25 05:12:00;;;;;;;12.02;7.57;;;8.00;72.40;;;;;;5024844;28;20055;-73
2021/11/25 05:14:26;;;;;;;9.98;6.32;;;8.00;72.50;;;;;;5021168;28;20637;-73
2021/11/25 05:16:51;;;;;;;10.93;7.10;;;8.00;72.70;;;;;;5022057;28;20029;-73
2021/11/25 05:19:18;;;;;;;11.05;7.20;;;8.00;72.60;;;;;;5020324;28;20038;-73
2021/11/25 05:21:44;;;;;;;10.35;6.63;;;8.00;73.60;;;;;;5031037;28;20026;-73
2021/11/25 05:24:10;;;;;;;12.45;7.38;;;8.00;73.00;;;;;;5015055;28;20034;-73
2021/11/25 05:26:36;;;;;;;9.60;6.75;;;8.00;72.80;;;;;;5012968;28;20517;-73
2021/11/25 05:29:01;;;;;;;10.57;6.85;;;8.00;72.90;;;;;;5012717;28;20368;-73
2021/11/25 05:31:28;;;;;;;10.98;7.20;;;8.00;72.80;;;;;;5012792;28;20080;-72
2021/11/25 05:33:53;;;;;;;9.57;6.82;;;7.90;72.90;;;;;;5012399;28;20018;-72
2021/11/25 05:36:19;;;;;;;11.23;7.25;;;7.90;72.90;;;;;;5011368;28;20085;-72
2021/11/25 05:38:45;;;;;;;10.98;6.90;;;7.90;73.00;;;;;;4992551;28;20054;-73
2021/11/25 05:41:10;;;;;;;12.68;8.02;;;7.90;73.20;;;;;;5009702;28;20025;-72
2021/11/25 05:43:36;;;;;;;10.70;6.88;;;7.90;73.00;;;;;;5010747;28;20466;-72
2021/11/25 05:46:02;;;;;;;12.43;8.02;;;7.90;72.90;;;;;;5010651;28;20034;-72
2021/11/25 05:48:28;;;;;;;12.07;7.28;;;7.90;73.30;;;;;;5012368;28;20022;-72
2021/11/25 05:50:54;;;;;;;14.43;7.85;;;7.90;73.20;;;;;;5014099;28;20506;-73
2021/11/25 05:53:20;;;;;;;11.30;7.28;;;7.90;73.40;;;;;;5012072;28;20095;-73
2021/11/25 05:55:47;;;;;;;12.38;7.43;;;7.90;73.40;;;;;;5011999;28;20018;-73
2021/11/25 05:58:13;;;;;;;11.73;7.38;;;7.90;73.40;;;;;;5010433;28;20105;-73
2021/11/25 06:00:38;;;;;;;12.40;7.35;;;7.90;73.20;;;;;;5011157;28;20101;-73
2021/11/25 06:03:04;;;;;;;11.02;7.50;;;8.00;73.20;;;;;;4997032;28;20069;-73
2021/11/25 06:05:30;;;;;;;10.73;7.10;;;8.00;73.10;;;;;;5011121;28;20034;-73
2021/11/25 06:07:59;;;;;;;12.63;7.20;;;8.00;73.30;;;;;;5009607;28;20074;-73
2021/11/25 06:10:25;;;;;;;13.00;8.32;;;8.00;73.20;;;;;;5011468;28;20021;-73
2021/11/25 06:12:52;;;;;;;11.77;7.18;;;8.00;73.00;;;;;;5010219;28;20055;-72
2021/11/25 06:15:20;;;;;;;12.80;7.47;;;7.90;73.20;;;;;;5011027;28;20056;-72
2021/11/25 06:17:46;;;;;;;10.63;6.93;;;7.90;73.30;;;;;;5013790;28;20026;-72
2021/11/25 06:20:13;;;;;;;11.27;7.20;;;8.00;73.10;;;;;;5006399;28;20027;-73
2021/11/25 06:22:49;;;;;;;11.93;7.40;;;7.90;73.10;;;;;;5003664;28;20026;-73
2021/11/25 06:25:17;;;;;;;11.73;7.80;;;7.90;73.00;;;;;;5009714;28;20034;-72
2021/11/25 06:27:43;;;;;;;11.35;7.13;;;7.90;73.30;;;;;;5009767;28;20037;-73
2021/11/25 06:30:11;;;;;;;11.88;7.80;;;7.90;73.60;;;;;;5011807;28;20028;-72
2021/11/25 06:32:40;;;;;;;11.65;7.65;;;7.90;73.30;;;;;;5011891;28;20105;-73
2021/11/25 06:35:11;;;;;;;10.93;6.85;;;7.90;73.60;;;;;;5009144;28;20043;-72
2021/11/25 06:37:39;;;;;;;12.30;7.32;;;7.90;73.70;;;;;;4994285;28;20391;-72
2021/11/25 06:40:08;;;;;;;13.35;8.20;;;7.90;73.60;;;;;;5009446;28;20026;-71
2021/11/25 06:42:34;;;;;;;11.68;7.50;;;7.90;73.90;;;;;;5008698;28;20088;-71
2021/11/25 06:45:01;;;;;;;12.40;7.53;;;7.90;73.80;;;;;;5011712;28;20029;-71
2021/11/25 06:47:26;;;;;;;12.25;7.53;;;7.90;73.80;;;;;;5010777;28;20068;-71
2021/11/25 06:49:52;;;;;;;12.93;7.45;;;7.90;73.80;;;;;;5009520;28;20022;-71
2021/11/25 06:52:18;;;;;;;13.07;7.70;;;7.90;74.00;;;;;;5009167;28;20462;-70
2021/11/25 06:54:43;;;;;;;12.38;8.10;;;8.00;74.10;;;;;;4993513;28;20487;-70
2021/11/25 06:57:09;;;;;;;13.30;8.07;;;8.00;74.30;;;;;;5010897;28;20136;-73
2021/11/25 06:59:35;;;;;;;11.60;7.80;;;8.00;74.30;;;;;;5009558;28;20471;-69
2021/11/25 07:02:00;;;;;;;13.63;8.38;;;8.00;73.90;;;;;;5012159;28;20021;-69
2021/11/25 07:04:26;;;;;;;15.68;8.30;;;8.00;73.60;;;;;;5009402;28;20360;-69
2021/11/25 07:06:52;;;;;;;11.85;7.82;;;8.00;73.90;;;;;;4991481;28;20068;-69
2021/11/25 07:09:17;;;;;;;12.80;8.02;;;8.00;74.10;;;;;;5010107;28;20093;-70
2021/11/25 07:11:43;;;;;;;13.07;8.15;;;8.10;74.40;;;;;;5011978;28;20037;-68
2021/11/25 07:14:09;;;;;;;13.00;8.18;;;8.10;74.50;;;;;;5008597;28;20016;-69
2021/11/25 07:16:35;;;;;;;13.98;8.55;;;8.10;74.40;;;;;;5008391;28;20113;-70
2021/11/25 07:19:02;;;;;;;13.85;8.30;;;8.10;74.60;;;;;;5008352;28;20129;-70
2021/11/25 07:21:28;;;;;;;11.88;7.18;;;8.10;74.60;;;;;;5008818;28;20441;-69
2021/11/25 07:23:54;;;;;;;14.27;8.27;;;8.10;74.80;;;;;;5012839;28;20029;-69
2021/11/25 07:26:20;;;;;;;14.75;9.05;;;8.10;74.70;;;;;;5009047;28;20037;-68
2021/11/25 07:28:45;;;;;;;13.95;8.93;;;8.10;74.60;;;;;;5008829;28;20038;-67
2021/11/25 07:31:11;;;;;;;13.75;8.43;;;8.10;75.00;;;;;;5008791;28;20521;-68
2021/11/25 07:33:37;;;;;;;14.20;9.52;;;8.10;74.80;;;;;;5008794;28;20034;-68
2021/11/25 07:36:03;;;;;;;14.13;8.95;;;8.10;74.80;;;;;;5011421;28;20021;-68
2021/11/25 07:38:30;;;;;;;15.18;9.73;;;8.10;75.10;;;;;;5010024;28;20022;-68
2021/11/25 07:40:57;;;;;;;14.50;9.02;;;8.10;75.30;;;;;;5008807;28;20050;-69
2021/11/25 07:43:23;;;;;;;13.88;9.25;;;8.10;75.30;;;;;;5008966;28;20060;-68
2021/11/25 07:45:49;;;;;;;14.90;9.07;;;8.10;75.20;;;;;;5008470;28;20050;-70
2021/11/25 07:48:14;;;;;;;17.27;9.68;;;8.10;75.40;;;;;;5009790;28;20488;-70
2021/11/25 07:50:41;;;;;;;13.73;9.50;;;8.10;75.50;;;;;;5010962;28;20384;-70
2021/11/25 07:53:07;;;;;;;15.15;8.73;;;8.10;75.30;;;;;;5008447;28;20040;-70
2021/11/25 07:55:34;;;;;;;14.18;9.52;;;8.10;75.20;;;;;;5008374;28;20018;-69
2021/11/25 07:57:59;;;;;;;15.13;9.43;;;8.20;76.40;;;;;;5008700;28;20022;-68
2021/11/25 08:00:27;;;;;;;14.23;8.98;;;8.10;75.50;;;;;;4992450;28;20030;-69
2021/11/25 08:02:55;;;;;;;13.63;8.82;;;8.10;75.60;;;;;;5015271;28;20022;-69
2021/11/25 08:05:25;;;;;;;14.85;9.30;;;8.20;75.50;;;;;;5010453;28;20113;-69
2021/11/25 08:07:55;;;;;;;15.85;8.80;;;8.10;75.20;;;;;;5008434;28;20391;-69
2021/11/25 08:10:23;;;;;;;14.43;8.65;;;8.10;75.80;;;;;;5007962;28;20030;-69
2021/11/25 08:12:49;;;;;;;13.52;9.35;;;8.20;76.20;;;;;;5010014;28;20061;-68
2021/11/25 08:15:15;;;;;;;14.30;8.25;;;8.20;76.60;;;;;;4992091;28;20042;-68
2021/11/25 08:17:41;;;;;;;14.60;8.77;;;8.20;75.80;;;;;;5011537;28;20537;-67
2021/11/25 08:20:09;;;;;;;14.57;8.95;;;8.20;76.30;;;;;;5007656;28;20038;-69
2021/11/25 08:22:35;;;;;;;14.77;9.07;;;8.20;75.90;;;;;;5008085;28;20014;-67
2021/11/25 08:25:02;;;;;;;13.20;8.75;;;8.20;76.30;;;;;;5008336;28;20029;-67
2021/11/25 08:27:28;;;;;;;13.25;8.43;;;8.10;76.10;;;;;;4990225;28;20061;-67
2021/11/25 08:29:54;;;;;;;13.55;8.57;;;8.10;76.40;;;;;;5011772;28;20122;-66
2021/11/25 08:32:20;;;;;;;15.50;9.38;;;8.10;76.80;;;;;;5008010;28;20032;-66
2021/11/25 08:34:45;;;;;;;16.13;9.70;;;8.10;76.80;;;;;;4990530;28;20026;-66
2021/11/25 08:37:11;;;;;;;14.38;8.90;;;8.10;76.60;;;;;;5008078;28;20030;-67
2021/11/25 08:39:37;;;;;;;13.73;8.32;;;8.10;77.00;;;;;;4990779;28;20050;-67
2021/11/25 08:42:05;;;;;;;15.15;9.35;;;8.00;77.00;;;;;;5010450;28;20018;-67
2021/11/25 08:44:30;;;;;;;13.48;8.63;;;8.00;77.10;;;;;;5009583;28;20391;-67
2021/11/25 08:46:57;;;;;;;15.25;9.40;;;8.10;77.00;;;;;;5010360;28;20515;-70
2021/11/25 08:49:23;;;;;;;13.48;8.95;;;8.00;77.00;;;;;;5011812;28;20493;-71
2021/11/25 08:51:49;;;;;;;13.27;8.50;;;8.00;77.50;;;;;;4995779;28;20018;-68
2021/11/25 08:54:14;;;;;;;13.27;8.63;;;8.00;78.60;;;;;;4995843;28;20053;-69
2021/11/25 08:56:40;;;;;;;13.70;8.55;;;8.00;77.80;;;;;;5018422;28;20017;-69
2021/11/25 08:59:06;;;;;;;14.70;8.80;;;8.10;77.90;;;;;;5014184;28;20029;-73
2021/11/25 09:01:32;;;;;;;12.57;8.30;;;8.00;77.20;;;;;;5014680;28;20093;-65
2021/11/25 09:03:57;;;;;;;12.57;8.32;;;8.10;78.10;;;;;;4996839;28;20364;-64
2021/11/25 09:06:23;;;;;;;12.93;8.75;;;8.10;78.20;;;;;;5011727;28;20046;-65
2021/11/25 09:08:49;;;;;;;13.30;7.85;;;8.10;78.10;;;;;;4994193;28;20026;-65
2021/11/25 09:11:15;;;;;;;13.95;8.30;;;8.10;78.50;;;;;;5011093;28;20450;-65
2021/11/25 09:13:41;;;;;;;13.70;8.43;;;8.10;78.60;;;;;;5011578;28;20105;-64
2021/11/25 09:16:07;;;;;;;12.45;8.45;;;8.10;78.90;;;;;;5011366;28;20498;-65
2021/11/25 09:18:33;;;;;;;13.77;8.65;;;8.10;78.90;;;;;;5011284;28;20037;-65
2021/11/25 09:20:59;;;;;;;12.20;8.32;;;8.20;78.80;;;;;;5014080;28;20040;-65
2021/11/25 09:23:24;;;;;;;12.50;8.00;;;8.20;78.60;;;;;;5012334;28;20028;-65
2021/11/25 09:25:52;;;;;;;12.82;7.85;;;8.20;78.60;;;;;;5011354;28;20084;-65
2021/11/25 09:28:21;;;;;;;11.75;7.78;;;8.20;79.00;;;;;;5011163;28;20046;-65
2021/11/25 09:30:48;;;;;;;13.25;7.82;;;8.20;79.00;;;;;;5010917;28;20402;-65
2021/11/25 09:33:14;;;;;;;12.90;8.15;;;8.10;79.30;;;;;;5013127;28;20212;-65
2021/11/25 09:35:40;;;;;;;11.77;7.95;;;8.20;79.60;;;;;;5013151;28;20048;-65
2021/11/25 09:38:08;;;;;;;11.50;7.95;;;8.30;79.90;;;;;;5010921;28;20022;-65
2021/11/25 09:40:34;;;;;;;11.63;8.25;;;8.40;79.50;;;;;;5011234;28;20038;-64
2021/11/25 09:43:06;;;;;;;12.05;7.40;;;8.40;79.50;;;;;;5010997;28;20022;-64
2021/11/25 09:45:33;;;;;;;11.70;7.65;;;8.50;79.80;;;;;;5010728;28;20019;-65
2021/11/25 09:48:03;;;;;;;11.02;7.00;;;8.70;79.50;;;;;;5013579;28;20041;-64
2021/11/25 09:50:31;;;;;;;11.70;7.13;;;8.70;80.00;;;;;;5013673;28;20080;-64
2021/11/25 09:53:01;;;;;;;9.98;6.43;;;8.70;79.50;;;;;;5010674;28;20030;-64
2021/11/25 09:55:27;;;;;;;9.00;6.30;;;8.70;80.20;;;;;;5011032;28;20030;-64
2021/11/25 09:57:53;;;;;;;8.93;5.60;;;8.70;79.40;;;;;;5009499;28;20065;-64
2021/11/25 10:00:23;;;;;;;9.80;6.28;;;8.80;80.30;;;;;;5011460;28;20061;-63
2021/11/25 10:02:48;;;;;;;7.88;5.45;;;8.90;79.90;;;;;;5017365;28;20101;-64
2021/11/25 10:05:14;;;;;;;7.65;5.30;;;9.00;80.20;;;;;;5010870;28;20116;-64
2021/11/25 10:07:41;;;;;;;11.00;5.70;;;9.10;79.70;;;;;;5010350;28;20044;-64
2021/11/25 10:10:30;;;;;;;7.82;5.15;;;9.30;80.00;;;;;;5010459;28;20060;-64
2021/11/25 10:13:12;;;;;;;8.15;5.20;;;9.40;79.80;;;;;;5010752;28;20022;-64
2021/11/25 10:15:39;;;;;;;8.23;5.15;;;9.40;79.20;;;;;;4997032;28;20426;-64
2021/11/25 10:18:09;;;;;;;7.93;5.30;;;9.40;80.00;;;;;;5012979;28;20500;-63
2021/11/25 10:20:43;;;;;;;7.65;4.85;;;9.30;79.10;;;;;;5012042;28;20398;-64
2021/11/25 10:23:14;;;;;;;7.40;4.85;;;9.30;79.10;;;;;;5010171;28;20018;-64
2021/11/25 10:25:41;;;;;;;8.00;5.70;;;9.40;79.30;;;;;;5010103;28;20033;-63
2021/11/25 10:28:07;;;;;;;7.63;5.50;;;9.30;79.10;;;;;;5009688;28;20030;-65
2021/11/25 10:30:37;;;;;;;8.13;5.60;;;9.30;79.50;;;;;;5010009;28;20026;-64
2021/11/25 10:33:03;;;;;;;8.32;5.10;;;9.30;79.70;;;;;;4994794;28;20384;-64
2021/11/25 10:35:41;;;;;;;8.50;5.80;;;9.30;79.50;;;;;;5011311;28;20029;-63
2021/11/25 10:40:35;;;;;;;7.85;5.53;;;9.30;79.90;;;;;;5009883;28;20064;-64
2021/11/25 10:43:16;;;;;;;8.30;5.57;;;9.30;79.80;;;;;;4992368;28;20025;-64
2021/11/25 10:45:48;;;;;;;9.73;6.10;;;9.30;79.50;;;;;;5009899;28;20383;-64
2021/11/25 10:48:27;;;;;;;10.50;6.68;;;9.30;79.80;;;;;;5011262;28;20030;-63
2021/11/25 10:50:53;;;;;;;10.18;6.63;;;9.20;79.40;;;;;;5009514;28;20022;-63
2021/11/25 10:53:18;;;;;;;8.35;6.05;;;9.30;80.20;;;;;;5009869;28;20053;-65
2021/11/25 10:55:44;;;;;;;10.48;7.18;;;9.40;80.30;;;;;;5009556;28;20101;-64
2021/11/25 10:58:12;;;;;;;9.45;6.53;;;9.40;80.10;;;;;;5009360;28;20067;-64
2021/11/25 11:00:41;;;;;;;8.00;5.85;;;9.40;79.80;;;;;;5010228;28;20018;-63
2021/11/25 11:03:19;;;;;;;9.40;6.55;;;9.40;80.00;;;;;;5014231;28;20049;-63
2021/11/25 11:05:51;;;;;;;9.60;6.95;;;9.40;80.00;;;;;;5012439;28;20014;-64
2021/11/25 11:08:17;;;;;;;9.35;6.95;;;9.30;80.30;;;;;;5010411;28;20035;-64
2021/11/25 11:11:10;;;;;;;11.07;7.13;;;9.30;79.90;;;;;;5009296;28;20037;-63
2021/11/25 11:16:23;;;;;;;9.95;7.28;;;9.30;80.30;;;;;;5009299;28;20029;-65
2021/11/25 11:19:00;;;;;;;10.98;7.10;;;9.40;80.90;;;;;;5009166;28;20046;-65
2021/11/25 11:21:34;;;;;;;10.23;7.03;;;9.60;81.10;;;;;;4994228;28;20025;-65
2021/11/25 11:24:05;;;;;;;10.43;7.40;;;9.80;81.10;;;;;;5011951;28;20022;-63
2021/11/25 11:26:31;;;;;;;9.60;6.97;;;9.90;80.90;;;;;;5011544;28;20483;-65
2021/11/25 11:28:57;;;;;;;12.23;7.35;;;10.10;80.40;;;;;;4990949;28;20124;-71
2021/11/25 11:31:23;;;;;;;12.15;8.23;;;10.20;80.20;;;;;;5003073;28;20121;-76
2021/11/25 11:33:49;;;;;;;10.30;7.50;;;10.30;80.20;;;;;;5008986;28;20040;-75
2021/11/25 11:36:16;;;;;;;11.27;8.35;;;10.50;80.40;;;;;;4996638;28;20045;-75
2021/11/25 11:38:44;;;;;;;11.77;7.93;;;10.60;79.70;;;;;;5007265;28;20011;-75
2021/11/25 11:41:10;;;;;;;12.15;8.07;;;10.60;78.60;;;;;;5001350;28;20499;-75
2021/11/25 11:43:36;;;;;;;10.93;7.63;;;10.50;78.30;;;;;;4985103;28;20029;-75
2021/11/25 11:46:02;;;;;;;11.23;7.45;;;10.30;78.00;;;;;;5007413;28;20540;-74
2021/11/25 11:48:31;;;;;;;12.80;8.15;;;10.20;78.50;;;;;;4998704;28;20109;-73
2021/11/25 11:50:58;;;;;;;12.43;8.38;;;10.30;79.40;;;;;;5004377;28;20034;-73
2021/11/25 11:53:37;;;;;;;12.23;8.55;;;10.30;79.50;;;;;;4988936;28;20502;-73
2021/11/25 11:56:04;;;;;;;13.18;9.15;;;10.40;79.80;;;;;;5006039;28;20022;-73
2021/11/25 11:58:47;;;;;;;13.18;8.07;;;10.50;79.60;;;;;;4998836;28;20022;-73
2021/11/25 12:01:16;;;;;;;12.40;8.77;;;10.50;79.50;;;;;;4998115;28;20025;-74
2021/11/25 12:03:51;;;;;;;12.35;7.82;;;10.50;79.20;;;;;;5008770;28;20037;-75
2021/11/25 12:06:49;;;;;;;12.95;8.60;;;10.50;79.00;;;;;;5009705;28;20059;-74
2021/11/25 12:09:24;;;;;;;14.70;9.13;;;10.50;79.10;;;;;;5008990;28;20689;-72
2021/11/25 12:12:04;;;;;;;12.98;8.85;;;10.60;79.40;;;;;;5011947;28;20525;-72
2021/11/25 12:14:32;;;;;;;12.20;8.63;;;10.60;79.30;;;;;;4991170;28;20144;-67
2021/11/25 12:17:09;;;;;;;11.73;7.88;;;10.60;79.10;;;;;;5015573;28;20057;-68
2021/11/25 12:19:36;;;;;;;12.10;8.82;;;10.60;78.70;;;;;;5015386;28;20026;-68
2021/11/25 12:22:13;;;;;;;11.50;8.32;;;10.60;79.10;;;;;;5004261;28;20040;-67
2021/11/25 12:24:55;;;;;;;12.40;7.72;;;10.50;78.90;;;;;;5013220;28;21219;-66
2021/11/25 12:27:24;;;;;;;11.25;8.10;;;10.70;80.10;;;;;;5023958;28;20038;-67
2021/11/25 12:30:04;;;;;;;11.48;8.05;;;10.90;79.80;;;;;;5018768;28;20052;-65
2021/11/25 12:32:43;;;;;;;11.15;7.80;;;11.00;79.00;;;;;;4999431;28;20026;-66
2021/11/25 12:35:14;;;;;;;11.90;8.20;;;11.00;78.40;;;;;;4986471;28;20418;-66
2021/11/25 12:38:04;;;;;;;11.05;7.63;;;10.90;78.50;;;;;;5011718;28;20025;-66
2021/11/25 12:40:29;;;;;;;9.38;6.93;;;10.90;78.50;;;;;;5001651;28;20462;-66
2021/11/25 12:43:10;;;;;;;9.35;6.82;;;10.90;78.90;;;;;;5011843;28;20493;-66
2021/11/25 12:45:44;;;;;;;12.32;7.80;;;11.00;78.90;;;;;;4993973;28;20054;-66
2021/11/25 12:48:13;;;;;;;8.82;6.43;;;11.00;79.10;;;;;;5012597;28;20029;-67
2021/11/25 12:50:56;;;;;;;7.63;5.28;;;11.10;78.40;;;;;;5012351;28;20422;-68
2021/11/25 12:53:23;;;;;;;6.43;3.88;;;11.00;77.80;;;;;;4987432;28;20037;-67
2021/11/25 12:55:55;;;;;;;7.80;4.63;;;10.90;77.60;;;;;;5010090;28;20523;-66
2021/11/25 12:58:30;;;;;;;6.35;4.13;;;10.80;77.80;;;;;;5011233;28;20026;-66
2021/11/25 13:00:56;;;;;;;6.47;4.00;;;10.60;77.80;;;;;;5017046;28;20081;-66